Time;durP1;ratioP1;P1;durP2;ratioP2;P2;SDS_P1;SDS_P2;PMS_P1;PMS_P2;Temp;Humidity;BMP_temperature;BMP_pressure;BME280_temperature;BME280_humidity;BME280_pressure;Samples;Min_cycle;Max_cycle;Signal;HPM_P1;HPM_P2
2023/01/03 00:00:39;;;;;;;1999.90;999.90;;;;;;;10.61;100.00;98974.81;5059701;28;20489;-77
2023/01/03 00:03:04;;;;;;;1999.90;999.90;;;;;;;10.53;100.00;98975.31;5059999;28;20010;-80
2023/01/03 00:05:29;;;;;;;1999.90;999.90;;;;;;;10.45;100.00;98963.00;5059853;28;20020;-74
2023/01/03 00:07:57;;;;;;;1999.90;999.90;;;;;;;10.49;100.00;98969.59;5060572;28;20025;-75
2023/01/03 00:10:23;;;;;;;1999.90;999.90;;;;;;;10.48;100.00;98962.47;5058751;28;20048;-81
2023/01/03 00:12:48;;;;;;;1999.90;999.90;;;;;;;10.54;100.00;98974.22;5060463;28;20029;-75
2023/01/03 00:15:14;;;;;;;1999.90;999.90;;;;;;;10.47;100.00;98970.94;5079394;28;20048;-73
2023/01/03 00:17:40;;;;;;;1999.90;999.90;;;;;;;10.27;100.00;98947.09;5288483;22;20052;-81
2023/01/03 00:20:07;;;;;;;1999.90;999.90;;;;;;;10.18;100.00;98935.00;5096118;28;20040;-82
2023/01/03 00:22:33;;;;;;;1999.90;999.90;;;;;;;10.27;100.00;98949.00;5084243;28;20036;-81
2023/01/03 00:25:01;;;;;;;1999.90;999.90;;;;;;;10.22;100.00;98938.88;5073130;28;20029;-81
2023/01/03 00:27:27;;;;;;;1999.90;999.90;;;;;;;10.26;100.00;98947.34;5077828;28;20024;-81
2023/01/03 00:29:53;;;;;;;1999.90;999.90;;;;;;;10.35;100.00;98951.22;5086760;28;20621;-81
2023/01/03 00:32:18;;;;;;;1999.90;999.90;;;;;;;10.14;100.00;98923.00;5087796;28;20046;-81
2023/01/03 00:34:45;;;;;;;1999.90;999.90;;;;;;;10.21;100.00;98939.97;5087115;28;20205;-81
2023/01/03 00:37:14;;;;;;;1999.90;999.90;;;;;;;10.24;100.00;98938.59;5088360;28;20052;-81
2023/01/03 00:39:40;;;;;;;1999.90;999.90;;;;;;;10.27;100.00;98940.81;5089152;28;20115;-80
2023/01/03 00:42:07;;;;;;;1999.90;999.90;;;;;;;10.49;100.00;98968.75;5093126;28;20028;-81
2023/01/03 00:44:32;;;;;;;1999.90;999.90;;;;;;;10.32;100.00;98951.75;5093914;28;20051;-80
2023/01/03 00:46:59;;;;;;;1999.90;999.90;;;;;;;10.46;100.00;98972.03;5090927;28;20024;-80
2023/01/03 00:49:27;;;;;;;1999.90;999.90;;;;;;;10.56;100.00;98986.53;5093465;28;20017;-80
2023/01/03 00:51:53;;;;;;;1999.90;999.90;;;;;;;10.59;100.00;98979.72;5094557;28;20017;-81
2023/01/03 00:54:19;;;;;;;1999.90;999.90;;;;;;;10.56;100.00;98986.53;5095316;28;20038;-80
2023/01/03 00:56:46;;;;;;;1999.90;999.90;;;;;;;10.60;100.00;98998.59;5092886;28;20051;-81
2023/01/03 00:59:15;;;;;;;1999.90;999.90;;;;;;;10.63;100.00;99000.81;5090546;28;20035;-80
2023/01/03 01:01:44;;;;;;;1999.90;999.90;;;;;;;10.69;100.00;98999.72;5089920;28;20048;-80
2023/01/03 01:04:25;;;;;;;1999.90;999.90;;;;;;;10.64;100.00;98999.72;5091208;28;20426;-80
2023/01/03 01:06:56;;;;;;;1999.90;999.90;;;;;;;10.65;100.00;98998.59;5093148;28;20578;-81
2023/01/03 01:09:28;;;;;;;1999.90;999.90;;;;;;;10.67;100.00;99004.66;5079246;28;20025;-80
2023/01/03 01:11:54;;;;;;;1999.90;999.90;;;;;;;10.66;100.00;99007.63;5065289;28;20096;-80
2023/01/03 01:14:22;;;;;;;1999.90;999.90;;;;;;;10.64;100.00;99005.19;5068640;28;20029;-80
2023/01/03 01:16:52;;;;;;;1999.90;999.90;;;;;;;10.63;100.00;98997.22;5069168;28;20043;-81
2023/01/03 01:19:22;;;;;;;1999.90;999.90;;;;;;;10.63;100.00;99003.53;5068585;28;20093;-80
2023/01/03 01:21:48;;;;;;;1999.90;999.90;;;;;;;10.52;100.00;99006.53;5069328;28;20021;-79
2023/01/03 01:24:13;;;;;;;1999.90;999.90;;;;;;;10.56;100.00;99002.13;5074905;28;20012;-79
2023/01/03 01:26:39;;;;;;;1999.90;999.90;;;;;;;10.49;100.00;98996.13;5071428;28;20024;-80
2023/01/03 01:29:05;;;;;;;1999.90;999.90;;;;;;;10.53;100.00;98998.03;5074073;28;20005;-77
2023/01/03 01:31:31;;;;;;;1999.90;999.90;;;;;;;10.56;100.00;99000.22;5078050;28;20028;-80
2023/01/03 01:33:56;;;;;;;1999.90;999.90;;;;;;;10.54;100.00;99004.31;5075970;28;20029;-80
2023/01/03 01:36:25;;;;;;;1999.90;999.90;;;;;;;10.52;100.00;99009.25;5072300;28;20012;-81
2023/01/03 01:38:59;;;;;;;1999.90;999.90;;;;;;;10.47;100.00;99012.78;5069989;28;20025;-81
2023/01/03 01:44:41;;;;;;;1999.90;999.90;;;;;;;10.25;100.00;99012.16;5076148;28;20063;-81
2023/01/03 01:47:16;;;;;;;1999.90;999.90;;;;;;;10.15;100.00;99017.56;5074690;28;20025;-80
2023/01/03 01:49:44;;;;;;;1999.90;999.90;;;;;;;10.08;100.00;99012.34;5072239;28;20029;-79
2023/01/03 01:52:12;;;;;;;1999.90;999.90;;;;;;;10.03;100.00;99014.19;5071973;28;20028;-81
2023/01/03 01:54:40;;;;;;;1999.90;999.90;;;;;;;9.90;100.00;99014.69;5074380;28;20059;-77
2023/01/03 01:57:08;;;;;;;1999.90;999.90;;;;;;;9.95;100.00;99011.97;5074184;28;20072;-81
2023/01/03 01:59:33;;;;;;;1999.90;999.90;;;;;;;9.92;100.00;99012.50;5074593;28;20057;-78
2023/01/03 02:01:58;;;;;;;1999.90;999.90;;;;;;;9.88;100.00;99004.00;5074274;28;20029;-79
2023/01/03 02:04:29;;;;;;;1999.90;999.90;;;;;;;9.77;100.00;99006.97;5075564;28;20050;-80
2023/01/03 02:06:55;;;;;;;1999.90;999.90;;;;;;;9.67;100.00;99008.53;5076507;28;20089;-81
2023/01/03 02:09:20;;;;;;;1999.90;999.90;;;;;;;9.55;100.00;99007.88;5075415;28;20029;-80
2023/01/03 02:13:04;;;;;;;1999.90;999.90;;;;;;;9.44;100.00;99011.66;5074269;28;20080;-80
2023/01/03 02:14:45;;;;;;;1999.90;999.90;;;;;;;9.34;100.00;99006.09;5076834;28;20021;-75
2023/01/03 02:17:16;;;;;;;1999.90;999.90;;;;;;;9.28;100.00;99001.69;5078828;28;20088;-74
2023/01/03 02:20:02;;;;;;;1999.90;999.90;;;;;;;9.16;100.00;99001.06;5078452;28;20049;-74
2023/01/03 02:22:46;;;;;;;;;;;;;;;9.12;100.00;99005.38;5078494;28;20025;-74
2023/01/03 02:25:49;;;;;;;1999.90;999.90;;;;;;;9.01;100.00;99003.66;5077820;28;19901;-75
2023/01/03 02:28:52;;;;;;;1999.90;999.90;;;;;;;9.00;100.00;99000.09;5078318;28;20060;-77
2023/01/03 02:31:27;;;;;;;1999.90;999.90;;;;;;;8.95;100.00;99005.53;5078247;28;20013;-75
2023/01/03 02:33:56;;;;;;;1999.90;999.90;;;;;;;8.95;100.00;98991.88;5078319;28;20009;-73
2023/01/03 02:37:01;;;;;;;1999.90;999.90;;;;;;;8.92;100.00;98997.84;5078113;28;20055;-74
2023/01/03 02:39:38;;;;;;;1999.90;999.90;;;;;;;8.82;100.00;98991.47;5067419;28;20049;-76
2023/01/03 02:45:41;;;;;;;1999.90;999.90;;;;;;;8.67;100.00;98994.03;5078162;28;20047;-75
2023/01/03 02:48:26;;;;;;;1999.90;999.90;;;;;;;8.64;100.00;98994.56;5078484;28;20048;-78
2023/01/03 02:50:56;;;;;;;1999.90;999.90;;;;;;;8.58;100.00;98996.41;5077713;28;20049;-76
2023/01/03 02:53:30;;;;;;;1999.90;999.90;;;;;;;8.48;100.00;98999.03;5077934;28;20042;-75
2023/01/03 02:56:00;;;;;;;1999.90;999.90;;;;;;;8.50;100.00;98991.41;5077783;28;20028;-78
2023/01/03 02:58:30;;;;;;;1999.90;999.90;;;;;;;8.48;100.00;98999.84;5077795;28;20029;-78
2023/01/03 03:00:58;;;;;;;1999.90;999.90;;;;;;;8.45;100.00;98996.81;5077691;28;20028;-77
2023/01/03 03:03:32;;;;;;;1999.90;999.90;;;;;;;8.38;100.00;99001.63;5077162;28;20176;-76
2023/01/03 03:06:06;;;;;;;1999.90;999.90;;;;;;;8.45;100.00;99000.38;5077823;28;20136;-77
2023/01/03 03:08:31;;;;;;;1999.90;999.90;;;;;;;8.55;100.00;99003.19;5076872;28;20017;-74
2023/01/03 03:13:49;;;;;;;1999.90;999.90;;;;;;;8.55;100.00;98997.72;5077717;28;20112;-74
2023/01/03 03:16:47;;;;;;;1999.90;999.90;;;;;;;8.54;100.00;99004.28;5077545;28;20028;-79
2023/01/03 03:25:32;;;;;;;1999.90;999.90;;;;;;;8.32;100.00;99000.75;5076924;28;20076;-75
2023/01/03 03:30:53;;;;;;;1999.90;999.90;;;;;;;8.30;100.00;99011.06;5076548;28;20059;-76
2023/01/03 03:33:21;;;;;;;1999.90;999.90;;;;;;;8.33;100.00;99018.75;5076589;28;20041;-78
2023/01/03 03:35:52;;;;;;;1999.90;999.90;;;;;;;8.28;100.00;99010.50;5079830;28;20025;-79
2023/01/03 03:38:26;;;;;;;1999.90;999.90;;;;;;;8.18;100.00;99007.63;5081141;28;20044;-73
2023/01/03 03:44:59;;;;;;;1999.90;999.90;;;;;;;8.07;100.00;99008.59;5081201;28;20035;-74
2023/01/03 03:47:24;;;;;;;1999.90;999.90;;;;;;;8.05;100.00;99008.00;5040823;28;20042;-76
2023/01/03 03:49:53;;;;;;;1999.90;999.90;;;;;;;8.02;100.00;99006.63;5040814;28;20014;-74
2023/01/03 03:52:24;;;;;;;1999.90;999.90;;;;;;;8.17;100.00;99000.56;5062819;28;20017;-73
2023/01/03 03:54:55;;;;;;;1999.90;999.90;;;;;;;8.18;100.00;99002.19;5081152;28;20020;-74
2023/01/03 03:57:34;;;;;;;1999.90;999.90;;;;;;;8.14;100.00;99000.22;5081242;28;20013;-73
2023/01/03 04:00:07;;;;;;;1999.90;999.90;;;;;;;8.18;100.00;99007.63;5081213;28;20043;-74
2023/01/03 04:02:34;;;;;;;1999.90;999.90;;;;;;;8.09;100.00;99003.69;5080569;28;20021;-73
2023/01/03 04:05:02;;;;;;;1999.90;999.90;;;;;;;7.99;100.00;99000.84;5081046;28;20025;-73
2023/01/03 04:07:27;;;;;;;1999.90;999.90;;;;;;;8.03;100.00;99002.00;5081059;28;20016;-74
2023/01/03 04:09:53;;;;;;;1999.90;999.90;;;;;;;7.97;100.00;99003.00;5081132;28;20038;-74
2023/01/03 04:12:18;;;;;;;1999.90;999.90;;;;;;;8.00;100.00;98999.78;5081133;28;20014;-74
2023/01/03 04:14:44;;;;;;;1999.90;999.90;;;;;;;7.94;100.00;99007.06;5080862;28;20017;-73
2023/01/03 04:17:09;;;;;;;1999.90;999.90;;;;;;;8.03;100.00;99000.09;5080695;28;20080;-73
2023/01/03 04:19:34;;;;;;;1999.90;999.90;;;;;;;8.02;100.00;99013.97;5081264;28;20012;-73
2023/01/03 04:22:00;;;;;;;1999.90;999.90;;;;;;;7.96;100.00;99006.78;5080894;28;20019;-73
2023/01/03 04:24:25;;;;;;;1999.90;999.90;;;;;;;7.88;100.00;99012.69;5080750;28;20013;-73
2023/01/03 04:26:50;;;;;;;1999.90;999.90;;;;;;;7.94;100.00;99011.69;5080645;28;20015;-74
2023/01/03 04:29:16;;;;;;;1999.90;999.90;;;;;;;7.99;100.00;99012.56;5080687;28;20015;-73
2023/01/03 04:31:41;;;;;;;1999.90;999.90;;;;;;;7.96;100.00;99009.53;5080592;28;20036;-73
2023/01/03 04:34:06;;;;;;;1999.90;999.90;;;;;;;7.94;100.00;99006.25;5080567;28;20029;-74
2023/01/03 04:36:32;;;;;;;1999.90;999.90;;;;;;;7.97;100.00;99012.00;5080335;28;20047;-74
2023/01/03 04:38:57;;;;;;;1999.90;999.90;;;;;;;7.97;100.00;99016.63;5080456;28;20017;-73
2023/01/03 04:41:22;;;;;;;1999.90;999.90;;;;;;;7.92;100.00;99008.41;5080388;28;20020;-74
2023/01/03 04:44:03;;;;;;;1999.90;999.90;;;;;;;7.88;100.00;99018.97;5080190;28;20013;-74
2023/01/03 04:46:34;;;;;;;1999.90;999.90;;;;;;;7.83;100.00;99016.16;5080350;28;20009;-73
2023/01/03 04:49:00;;;;;;;1999.90;999.90;;;;;;;7.88;100.00;99012.69;5080672;28;20043;-73
2023/01/03 04:51:27;;;;;;;1999.90;999.90;;;;;;;7.84;100.00;99012.38;5080152;28;20040;-75
2023/01/03 04:53:52;;;;;;;1999.90;999.90;;;;;;;7.90;100.00;99022.25;5080294;28;20093;-75
2023/01/03 04:56:23;;;;;;;1999.90;999.90;;;;;;;7.93;100.00;99012.75;5079889;28;20025;-75
2023/01/03 04:58:48;;;;;;;1999.90;999.90;;;;;;;7.95;100.00;99018.78;5079984;28;20046;-73
2023/01/03 05:01:14;;;;;;;1999.90;999.90;;;;;;;7.94;100.00;99023.41;5079878;28;20025;-78
2023/01/03 05:03:39;;;;;;;1999.90;999.90;;;;;;;8.00;100.00;99027.84;5079947;28;20052;-78
2023/01/03 05:06:07;;;;;;;1999.90;999.90;;;;;;;8.01;100.00;99023.22;5079988;28;20072;-74
2023/01/03 05:08:34;;;;;;;1999.90;999.90;;;;;;;7.81;100.00;99026.50;5079794;28;20017;-76
2023/01/03 05:10:59;;;;;;;1999.90;999.90;;;;;;;7.81;100.00;99026.50;5079861;28;20059;-76
2023/01/03 05:13:25;;;;;;;1999.90;999.90;;;;;;;7.62;100.00;99024.28;5080003;28;20025;-75
2023/01/03 05:15:50;;;;;;;1999.90;999.90;;;;;;;7.68;100.00;99028.72;5079123;28;20017;-75
2023/01/03 05:18:16;;;;;;;1999.90;999.90;;;;;;;7.67;100.00;99027.09;5079853;28;20036;-78
2023/01/03 05:26:14;;;;;;;1999.90;999.90;;;;;;;7.40;100.00;99032.41;5077734;28;20028;-80
2023/01/03 05:28:49;;;;;;;1999.90;999.90;;;;;;;7.41;100.00;99028.63;5075766;28;20029;-80
2023/01/03 05:31:15;;;;;;;;;;;;;;;7.38;100.00;99029.94;5076887;28;20009;-81
2023/01/03 05:33:40;;;;;;;;;;;;;;;7.33;100.00;99027.13;5077802;28;19932;-81
2023/01/03 05:36:07;;;;;;;1999.90;999.90;;;;;;;7.23;100.00;99029.69;5079244;28;19923;-73
2023/01/03 05:38:32;;;;;;;1999.90;999.90;;;;;;;7.17;100.00;99032.59;5078490;28;20005;-76
2023/01/03 05:40:57;;;;;;;1999.90;999.90;;;;;;;7.20;100.00;99037.53;5078696;28;20053;-80
2023/01/03 05:43:23;;;;;;;1999.90;999.90;;;;;;;7.28;100.00;99035.22;5077961;28;20052;-77
2023/01/03 05:45:53;;;;;;;1999.90;999.90;;;;;;;7.30;100.00;99035.78;5078815;28;20045;-78
2023/01/03 05:48:19;;;;;;;1999.90;999.90;;;;;;;7.27;100.00;99030.84;5078614;28;20012;-81
2023/01/03 05:50:46;;;;;;;1999.90;999.90;;;;;;;7.28;100.00;99040.66;5077690;28;20013;-78
2023/01/03 05:53:11;;;;;;;1999.90;999.90;;;;;;;7.28;100.00;99037.94;5076915;28;20000;-80
2023/01/03 05:55:38;;;;;;;1999.90;999.90;;;;;;;7.29;100.00;99039.59;5073612;28;20088;-77
2023/01/03 05:58:04;;;;;;;1999.90;999.90;;;;;;;7.32;100.00;99041.81;5075599;28;20064;-79
2023/01/03 06:00:30;;;;;;;1999.90;999.90;;;;;;;7.35;100.00;99044.03;5074604;28;20029;-80
2023/01/03 06:02:55;;;;;;;1999.90;999.90;;;;;;;7.43;100.00;99049.06;5076325;28;20028;-78
2023/01/03 06:05:21;;;;;;;1999.90;999.90;;;;;;;7.38;100.00;99035.38;5077895;28;20016;-77
2023/01/03 06:07:46;;;;;;;1999.90;999.90;;;;;;;7.33;100.00;99048.88;5076371;28;20009;-77
2023/01/03 06:10:11;;;;;;;1999.90;999.90;;;;;;;7.37;100.00;99050.06;5072752;28;20033;-79
2023/01/03 06:12:37;;;;;;;1999.90;999.90;;;;;;;7.44;100.00;99053.44;5077138;28;20013;-76
2023/01/03 06:15:02;;;;;;;1999.90;999.90;;;;;;;7.53;100.00;99046.50;5075702;28;20009;-80
2023/01/03 06:20:12;;;;;;;1999.90;999.90;;;;;;;7.58;100.00;99055.84;5088259;28;20035;-79
2023/01/03 06:22:37;;;;;;;1999.90;999.90;;;;;;;7.61;100.00;99055.34;5078032;28;20041;-74
2023/01/03 06:25:03;;;;;;;1999.90;999.90;;;;;;;7.55;100.00;99057.13;5078361;28;20033;-74
2023/01/03 06:27:28;;;;;;;1999.90;999.90;;;;;;;7.58;100.00;99062.06;5077581;28;20032;-79
2023/01/03 06:29:54;;;;;;;1999.90;999.90;;;;;;;7.61;100.00;99061.59;5079840;28;20056;-78
2023/01/03 06:32:19;;;;;;;1999.90;999.90;;;;;;;7.62;100.00;99062.41;5081807;28;20554;-75
2023/01/03 06:34:44;;;;;;;1999.90;999.90;;;;;;;7.61;100.00;99058.06;5097704;28;20104;-78
2023/01/03 06:37:10;;;;;;;1999.90;999.90;;;;;;;7.69;100.00;99061.16;5096932;28;20080;-74
2023/01/03 06:39:35;;;;;;;1999.90;999.90;;;;;;;7.70;100.00;99062.00;5094247;28;20059;-79
2023/01/03 06:42:38;;;;;;;1999.90;999.90;;;;;;;7.61;100.00;99063.50;5095604;28;20004;-74
2023/01/03 06:53:10;;;;;;;1999.90;999.90;;;;;;;7.76;100.00;99070.00;5096283;28;20021;-81
2023/01/03 06:53:15;;;;;;;1999.90;999.90;;;;;;;7.56;100.00;99083.28;5097372;28;20088;-74
2023/01/03 06:55:42;;;;;;;1999.90;999.90;;;;;;;7.59;100.00;99082.78;5098015;28;20032;-76
2023/01/03 06:58:08;;;;;;;1999.90;999.90;;;;;;;7.54;100.00;99083.56;5097561;28;20024;-79
2023/01/03 07:00:35;;;;;;;1999.90;999.90;;;;;;;7.46;100.00;99083.13;5090930;28;20032;-77
2023/01/03 07:03:01;;;;;;;1999.90;999.90;;;;;;;7.50;100.00;99082.38;5087621;28;20026;-79
2023/01/03 07:05:26;;;;;;;1999.90;999.90;;;;;;;7.48;100.00;99081.00;5083148;28;20080;-80
2023/01/03 07:07:52;;;;;;;1999.90;999.90;;;;;;;7.55;100.00;99085.19;5081002;28;20016;-80
2023/01/03 07:10:17;;;;;;;1999.90;999.90;;;;;;;7.55;100.00;99090.63;5064903;28;20048;-80
2023/01/03 07:15:26;;;;;;;1999.90;999.90;;;;;;;7.51;100.00;99096.84;5063928;28;20040;-78
2023/01/03 07:17:51;;;;;;;1999.90;999.90;;;;;;;7.48;100.00;99098.16;5057927;28;20049;-79
2023/01/03 07:20:17;;;;;;;1999.90;999.90;;;;;;;7.49;100.00;99091.63;5062825;28;20021;-76
2023/01/03 07:22:42;;;;;;;1999.90;999.90;;;;;;;7.48;100.00;99095.44;5063863;28;20084;-79
2023/01/03 07:25:08;;;;;;;1999.90;999.90;;;;;;;7.48;100.00;99098.16;5075288;28;20001;-79
2023/01/03 07:27:33;;;;;;;1999.90;999.90;;;;;;;7.49;100.00;99105.22;5057869;28;20029;-78
2023/01/03 07:29:58;;;;;;;1999.90;999.90;;;;;;;7.55;100.00;99096.06;5058063;28;20489;-78
2023/01/03 07:32:23;;;;;;;1999.90;999.90;;;;;;;7.52;100.00;99102.00;5056835;28;20124;-78
2023/01/03 07:34:49;;;;;;;1999.90;999.90;;;;;;;7.62;100.00;99103.25;5057211;28;20050;-77
2023/01/03 07:37:14;;;;;;;1999.90;999.90;;;;;;;7.57;100.00;99108.63;5057516;28;20446;-78
2023/01/03 07:39:39;;;;;;;1999.90;999.90;;;;;;;7.59;100.00;99106.47;5055880;28;20039;-77
2023/01/03 07:44:49;;;;;;;1999.90;999.90;;;;;;;7.79;100.00;99109.53;5064717;28;20024;-78
2023/01/03 07:47:14;;;;;;;1999.90;999.90;;;;;;;7.81;100.00;99112.81;5082747;28;20037;-78
2023/01/03 07:49:39;;;;;;;1999.90;999.90;;;;;;;7.84;100.00;99107.69;5078429;28;20028;-77
2023/01/03 07:52:05;;;;;;;1999.90;999.90;;;;;;;7.83;100.00;99114.22;5075921;28;20446;-77
2023/01/03 07:54:30;;;;;;;1999.90;999.90;;;;;;;7.80;100.00;99111.19;5075825;28;20020;-76
2023/01/03 07:56:55;;;;;;;1999.90;999.90;;;;;;;7.81;100.00;99124.53;5074417;28;20113;-77
2023/01/03 07:59:21;;;;;;;1999.90;999.90;;;;;;;7.82;100.00;99122.63;5075241;28;20052;-77
2023/01/03 08:01:46;;;;;;;1999.90;999.90;;;;;;;7.86;100.00;99118.34;5073804;28;20502;-77
2023/01/03 08:04:11;;;;;;;1999.90;999.90;;;;;;;7.89;100.00;99123.31;5076425;28;20024;-77
2023/01/03 08:06:36;;;;;;;1999.90;999.90;;;;;;;7.94;100.00;99121.47;5075442;28;20128;-77
2023/01/03 08:14:29;;;;;;;1999.90;999.90;;;;;;;8.09;100.00;99131.75;5076755;28;20559;-77
2023/01/03 08:16:55;;;;;;;1999.90;999.90;;;;;;;8.10;100.00;99130.69;5076502;28;20052;-75
2023/01/03 08:19:21;;;;;;;1999.90;999.90;;;;;;;8.00;100.00;99130.53;5076867;28;20031;-78
2023/01/03 08:21:46;;;;;;;1999.90;999.90;;;;;;;8.11;100.00;99137.81;5076710;28;20370;-78
2023/01/03 08:24:11;;;;;;;1999.90;999.90;;;;;;;8.16;100.00;99132.41;5075936;28;20104;-77
2023/01/03 08:26:37;;;;;;;1999.90;999.90;;;;;;;8.21;100.00;99137.09;5075674;28;20048;-79
2023/01/03 08:29:02;;;;;;;1999.90;999.90;;;;;;;8.20;100.00;99138.19;5074188;28;20079;-78
2023/01/03 08:31:31;;;;;;;1999.90;999.90;;;;;;;8.26;100.00;99126.28;5076077;28;20043;-78
2023/01/03 08:34:02;;;;;;;1999.90;999.90;;;;;;;8.29;100.00;99140.28;5076468;28;20124;-77
2023/01/03 08:36:36;;;;;;;1999.90;999.90;;;;;;;8.30;100.00;99141.91;5075109;28;20029;-78
2023/01/03 08:39:08;;;;;;;1999.90;999.90;;;;;;;8.25;100.00;99136.38;5079743;28;20027;-77
2023/01/03 08:41:38;;;;;;;1999.90;999.90;;;;;;;8.21;100.00;99143.38;5080145;28;20048;-76
2023/01/03 08:44:07;;;;;;;1999.90;999.90;;;;;;;8.22;100.00;99144.22;5076553;28;20147;-76
2023/01/03 08:46:32;;;;;;;1999.90;999.90;;;;;;;8.16;100.00;99151.50;5077268;28;20028;-76
2023/01/03 08:48:59;;;;;;;1999.90;999.90;;;;;;;8.15;100.00;99152.56;5078753;28;20016;-75
2023/01/03 08:51:25;;;;;;;1999.90;999.90;;;;;;;8.08;100.00;99152.72;5085776;28;20074;-76
2023/01/03 08:53:51;;;;;;;1999.90;999.90;;;;;;;8.14;100.00;99155.56;5088092;28;20025;-76
2023/01/03 08:56:18;;;;;;;1999.90;999.90;;;;;;;8.03;100.00;99154.56;5089031;28;20046;-77
2023/01/03 08:58:44;;;;;;;1999.90;999.90;;;;;;;7.90;100.00;99152.16;5078725;28;20025;-77
2023/01/03 09:01:10;;;;;;;1999.90;999.90;;;;;;;7.89;100.00;99159.50;5075973;28;20123;-76
2023/01/03 09:03:36;;;;;;;1999.90;999.90;;;;;;;8.05;100.00;99158.69;5074543;28;20055;-77
2023/01/03 09:06:02;;;;;;;1999.90;999.90;;;;;;;8.36;100.00;99170.91;5075756;28;20044;-77
2023/01/03 09:08:34;;;;;;;1999.90;999.90;;;;;;;8.01;100.00;99151.28;5082683;28;20028;-78
2023/01/03 09:11:07;;;;;;;1999.90;999.90;;;;;;;7.96;100.00;99162.06;5082881;28;20029;-80
2023/01/03 09:13:33;;;;;;;1999.90;999.90;;;;;;;7.96;100.00;99162.06;5083021;28;20493;-78
2023/01/03 09:16:00;;;;;;;1999.90;999.90;;;;;;;7.92;100.00;99166.38;5082800;28;20064;-78
2023/01/03 09:18:25;;;;;;;1999.90;999.90;;;;;;;7.85;100.00;99163.00;5081860;28;20040;-79
2023/01/03 09:20:51;;;;;;;1999.90;999.90;;;;;;;7.78;100.00;99163.16;5082465;28;20030;-79
2023/01/03 09:23:17;;;;;;;1999.90;999.90;;;;;;;7.75;100.00;99168.28;5079156;28;20119;-79
2023/01/03 09:25:43;;;;;;;1999.90;999.90;;;;;;;7.74;100.00;99161.16;5081050;28;20021;-78
2023/01/03 09:28:08;;;;;;;1999.90;999.90;;;;;;;7.71;100.00;99164.38;5081179;28;20032;-79
2023/01/03 09:30:33;;;;;;;1999.90;999.90;;;;;;;7.66;100.00;99165.16;5082240;28;20025;-79
2023/01/03 09:32:59;;;;;;;1999.90;999.90;;;;;;;7.71;100.00;99159.78;5080524;28;20028;-79
2023/01/03 09:35:24;;;;;;;1999.90;999.90;;;;;;;7.71;100.00;99157.03;5083037;28;20040;-79
2023/01/03 09:37:49;;;;;;;1999.90;999.90;;;;;;;7.77;100.00;99160.69;5085132;28;20020;-78
2023/01/03 09:40:15;;;;;;;1999.90;999.90;;;;;;;7.84;100.00;99147.72;5084754;28;20039;-78
2023/01/03 09:45:49;;;;;;;1999.90;999.90;;;;;;;8.04;100.00;99148.06;5001827;28;20035;-78
2023/01/03 09:48:17;;;;;;;1999.90;999.90;;;;;;;8.12;100.00;99150.34;5000273;28;20026;-79
2023/01/03 09:50:44;;;;;;;1999.90;999.90;;;;;;;8.18;100.00;99154.78;5041761;28;20037;-78
2023/01/03 10:05:25;;;;;;;1999.90;999.90;;;;;;;8.47;100.00;99141.88;5080360;28;20036;-78
2023/01/03 10:08:03;;;;;;;1999.90;999.90;;;;;;;8.36;100.00;99140.94;5078288;28;20053;-79
2023/01/03 10:10:38;;;;;;;1999.90;999.90;;;;;;;8.31;100.00;99135.38;5085507;28;20054;-81
2023/01/03 10:13:16;;;;;;;1999.90;999.90;;;;;;;8.26;100.00;99132.56;5085043;28;20068;-80
2023/01/03 10:15:57;;;;;;;1999.90;999.90;;;;;;;8.09;100.00;99140.78;5092496;28;20063;-76
2023/01/03 10:18:47;;;;;;;1999.90;999.90;;;;;;;8.02;100.00;99131.09;5087199;28;20060;-78
2023/01/03 10:21:35;;;;;;;1999.90;999.90;;;;;;;7.99;100.00;99134.34;5081653;28;20047;-79
2023/01/03 10:24:01;;;;;;;1999.90;999.90;;;;;;;7.84;100.00;99123.22;5081766;28;20036;-79
2023/01/03 10:26:32;;;;;;;1999.90;999.90;;;;;;;7.86;100.00;99126.53;5079814;28;20025;-79
2023/01/03 10:28:57;;;;;;;1999.90;999.90;;;;;;;7.93;100.00;99124.44;5080390;28;20024;-78
2023/01/03 10:31:56;;;;;;;1999.90;999.90;;;;;;;7.97;100.00;99114.69;5080205;28;20024;-78
2023/01/03 10:34:21;;;;;;;1999.90;999.90;;;;;;;8.01;100.00;99115.84;5080732;28;20029;-80
2023/01/03 10:36:46;;;;;;;1999.90;999.90;;;;;;;7.96;100.00;99113.03;5081639;28;20133;-78
2023/01/03 10:39:13;;;;;;;1999.90;999.90;;;;;;;8.06;100.00;99118.66;5080190;28;20088;-79
2023/01/03 10:41:45;;;;;;;1999.90;999.90;;;;;;;8.15;100.00;99111.69;5082315;28;20050;-79
2023/01/03 10:44:22;;;;;;;1999.90;999.90;;;;;;;8.26;100.00;99108.03;5082002;28;20038;-78
2023/01/03 10:46:50;;;;;;;1999.90;999.90;;;;;;;8.32;100.00;99111.69;5085027;28;20051;-79
2023/01/03 10:49:21;;;;;;;1999.90;999.90;;;;;;;8.42;100.00;99106.38;5085457;28;20017;-78
2023/01/03 10:51:53;;;;;;;1999.90;999.90;;;;;;;8.54;100.00;99110.63;5079423;28;20028;-77
2023/01/03 10:54:18;;;;;;;1999.90;999.90;;;;;;;8.65;100.00;99100.66;5078496;28;20478;-78
2023/01/03 10:56:45;;;;;;;1999.90;999.90;;;;;;;8.66;100.00;99098.75;5078910;28;20067;-79
2023/01/03 10:59:13;;;;;;;1999.90;999.90;;;;;;;8.51;100.00;99099.41;5079992;28;20382;-78
2023/01/03 11:01:39;;;;;;;1999.90;999.90;;;;;;;8.44;100.00;99087.84;5079925;28;20020;-79
2023/01/03 11:04:18;;;;;;;1999.90;999.90;;;;;;;8.38;100.00;99094.31;5080200;28;20501;-78
2023/01/03 11:07:06;;;;;;;1999.90;999.90;;;;;;;8.47;100.00;99092.81;5080485;28;20273;-79
2023/01/03 11:09:42;;;;;;;1999.90;999.90;;;;;;;8.37;100.00;99093.50;5073065;28;20144;-79
2023/01/03 11:12:38;;;;;;;1999.90;999.90;;;;;;;8.28;100.00;99086.84;5079913;28;20029;-76
2023/01/03 11:15:29;;;;;;;1999.90;999.90;;;;;;;8.26;100.00;99078.06;5079288;28;20025;-79
2023/01/03 11:17:59;;;;;;;1999.90;999.90;;;;;;;8.33;100.00;99086.88;5074431;28;20124;-79
2023/01/03 11:20:56;;;;;;;1999.90;999.90;;;;;;;8.37;100.00;99088.03;5079907;28;20048;-78
2023/01/03 11:23:55;;;;;;;1999.90;999.90;;;;;;;8.34;100.00;99083.09;5079756;28;20040;-79
2023/01/03 11:26:53;;;;;;;1999.90;999.90;;;;;;;8.34;100.00;99083.09;5080613;28;20020;-79
2023/01/03 11:29:38;;;;;;;1999.90;999.90;;;;;;;8.29;100.00;99079.47;5080316;28;20033;-79
2023/01/03 11:32:34;;;;;;;1999.90;999.90;;;;;;;8.25;100.00;99079.13;5072941;28;20076;-78
2023/01/03 11:35:18;;;;;;;1999.90;999.90;;;;;;;8.34;100.00;99071.34;5082109;28;20025;-78
2023/01/03 11:38:22;;;;;;;1999.90;999.90;;;;;;;8.39;100.00;99075.00;5083042;28;20053;-78
2023/01/03 11:40:50;;;;;;;1999.90;999.90;;;;;;;8.43;100.00;99078.00;5081651;28;20040;-78
2023/01/03 11:43:43;;;;;;;1999.90;999.90;;;;;;;8.34;100.00;99061.28;5081976;28;20033;-79
2023/01/03 11:46:18;;;;;;;1999.90;999.90;;;;;;;8.35;100.00;99060.22;5080029;28;20043;-78
2023/01/03 11:49:17;;;;;;;1999.90;999.90;;;;;;;8.43;100.00;99061.66;5079315;28;20021;-79
2023/01/03 11:52:14;;;;;;;1999.90;999.90;;;;;;;8.42;100.00;99060.88;5082887;28;20036;-79
2023/01/03 11:55:10;;;;;;;1999.90;999.90;;;;;;;8.48;100.00;99064.47;5081272;28;20125;-78
2023/01/03 11:58:04;;;;;;;1999.90;999.90;;;;;;;8.51;100.00;99053.88;5085066;28;20036;-79
2023/01/03 12:00:44;;;;;;;1999.90;999.90;;;;;;;8.51;100.00;99053.88;5084145;28;20123;-80
2023/01/03 12:03:28;;;;;;;1999.90;999.90;;;;;;;8.50;100.00;99049.50;5082292;28;20029;-79
2023/01/03 12:06:10;;;;;;;1999.90;999.90;;;;;;;8.51;100.00;99051.16;5084268;28;20036;-79
2023/01/03 12:08:57;;;;;;;1999.90;999.90;;;;;;;8.61;100.00;99040.34;5084819;28;20093;-78
2023/01/03 12:11:53;;;;;;;1999.90;999.90;;;;;;;8.58;100.00;99049.03;5083882;28;20056;-78